createdAt,value
2023-03-13T00:00:22.283Z,61.99
2023-03-13T00:01:23.607Z,62.05
2023-03-13T00:02:20.670Z,61.48
2023-03-13T00:03:17.622Z,61.13
2023-03-13T00:04:14.517Z,61.28
2023-03-13T00:05:12.344Z,61.19
2023-03-13T00:06:09.341Z,61.93
2023-03-13T00:07:07.362Z,61.08
2023-03-13T00:08:04.340Z,61.43
2023-03-13T00:09:02.054Z,61.22
2023-03-13T00:09:58.950Z,61.02
2023-03-13T00:10:56.129Z,61.67
2023-03-13T00:11:53.515Z,61.80
2023-03-13T00:12:50.247Z,61.71
2023-03-13T00:13:46.993Z,62.62
2023-03-13T00:14:43.772Z,62.30
2023-03-13T00:15:40.616Z,62.46
2023-03-13T00:16:39.588Z,62.45
2023-03-13T00:17:36.504Z,61.58
2023-03-13T00:18:33.613Z,62.25
2023-03-13T00:19:30.450Z,62.05
2023-03-13T00:20:27.382Z,62.15
2023-03-13T00:21:27.728Z,61.60
2023-03-13T00:22:24.570Z,61.79
2023-03-13T00:23:21.420Z,61.56
2023-03-13T00:24:18.245Z,62.32
2023-03-13T00:25:15.122Z,62.45
2023-03-13T00:26:14.744Z,62.58
2023-03-13T00:27:11.489Z,62.79
2023-03-13T00:28:08.232Z,62.10
2023-03-13T00:29:05.062Z,62.66
2023-03-13T00:30:01.844Z,62.05
2023-03-13T00:31:06.552Z,61.77
2023-03-13T00:32:03.515Z,62.12
2023-03-13T00:33:00.364Z,62.18
2023-03-13T00:34:02.385Z,62.61
2023-03-13T00:34:59.372Z,62.29
2023-03-13T00:36:08.388Z,62.72
2023-03-13T00:37:05.213Z,62.14
2023-03-13T00:38:02.101Z,62.24
2023-03-13T00:38:59.780Z,62.10
2023-03-13T00:39:56.625Z,62.21
2023-03-13T00:41:14.963Z,62.14
2023-03-13T00:42:11.756Z,61.65
2023-03-13T00:43:08.604Z,61.55
2023-03-13T00:44:05.781Z,61.08
2023-03-13T00:45:03.089Z,60.67
2023-03-13T00:46:00.010Z,61.04
2023-03-13T00:46:59.137Z,60.64
2023-03-13T00:47:55.873Z,60.91
2023-03-13T00:48:53.059Z,60.89
2023-03-13T00:49:50.352Z,60.49
2023-03-13T00:50:47.222Z,61.00
2023-03-13T00:51:44.015Z,60.70
2023-03-13T00:52:40.800Z,60.81
2023-03-13T00:53:37.707Z,60.97
2023-03-13T00:54:34.457Z,61.54
2023-03-13T00:55:31.216Z,60.96
2023-03-13T00:56:29.253Z,61.47
2023-03-13T00:57:25.982Z,60.61
2023-03-13T00:58:24.556Z,61.51
2023-03-13T00:59:21.408Z,60.99
2023-03-13T01:00:18.659Z,61.68
2023-03-13T01:01:17.526Z,61.19
2023-03-13T01:02:14.363Z,60.90
2023-03-13T01:03:11.318Z,61.08
2023-03-13T01:04:11.326Z,61.63
2023-03-13T01:05:08.642Z,61.21
2023-03-13T01:06:08.753Z,62.22
2023-03-13T01:07:05.545Z,63.04
2023-03-13T01:08:02.380Z,61.96
2023-03-13T01:08:59.872Z,62.40
2023-03-13T01:09:56.614Z,62.39
2023-03-13T01:11:01.447Z,61.92
2023-03-13T01:11:58.567Z,62.53
2023-03-13T01:12:55.680Z,62.29
2023-03-13T01:13:58.327Z,62.70
2023-03-13T01:14:55.202Z,63.06
2023-03-13T01:15:52.016Z,62.92
2023-03-13T01:16:48.766Z,63.01
2023-03-13T01:17:46.454Z,62.32
2023-03-13T01:18:46.667Z,62.67
2023-03-13T01:19:43.490Z,62.52
2023-03-13T01:20:41.028Z,61.65
2023-03-13T01:21:38.359Z,61.83
2023-03-13T01:22:35.114Z,61.43
2023-03-13T01:23:32.255Z,62.41
2023-03-13T01:24:29.116Z,62.13
2023-03-13T01:25:26.039Z,61.99
2023-03-13T01:26:24.636Z,62.29
2023-03-13T01:27:21.421Z,61.52
2023-03-13T01:28:18.211Z,61.87
2023-03-13T01:29:15.022Z,61.69
2023-03-13T01:30:12.316Z,61.32
2023-03-13T01:31:21.318Z,61.64
2023-03-13T01:32:18.128Z,61.72
2023-03-13T01:33:15.808Z,61.14
2023-03-13T01:34:12.733Z,61.94
2023-03-13T01:35:09.487Z,61.66
2023-03-13T01:36:06.731Z,62.26
2023-03-13T01:37:03.570Z,61.86
2023-03-13T01:38:00.867Z,61.80
2023-03-13T01:39:00.216Z,61.39
2023-03-13T01:39:57.003Z,60.95
2023-03-13T01:40:53.876Z,60.95
2023-03-13T01:41:50.722Z,61.17
2023-03-13T01:42:56.892Z,60.93
2023-03-13T01:43:55.570Z,61.24
2023-03-13T01:44:56.141Z,60.72
2023-03-13T01:46:09.782Z,60.94
2023-03-13T01:47:06.543Z,60.98
2023-03-13T01:48:05.249Z,60.87
2023-03-13T01:49:22.625Z,60.84
2023-03-13T01:50:19.513Z,61.16
2023-03-13T01:51:50.241Z,60.96
2023-03-13T01:52:47.073Z,61.70
2023-03-13T01:53:50.229Z,61.41
2023-03-13T01:54:55.476Z,61.40
2023-03-13T01:55:55.807Z,60.98
2023-03-13T01:57:11.453Z,60.66
2023-03-13T01:58:08.600Z,60.05
2023-03-13T01:59:10.534Z,60.44
2023-03-13T02:00:16.582Z,59.82
2023-03-13T02:01:15.687Z,59.47
2023-03-13T02:02:16.081Z,59.25
2023-03-13T02:03:20.091Z,59.57
2023-03-13T02:04:22.220Z,59.37
2023-03-13T02:05:22.965Z,59.29
2023-03-13T02:06:19.858Z,58.88
2023-03-13T02:07:23.105Z,58.99
2023-03-13T02:08:56.050Z,60.56
2023-03-13T02:09:56.569Z,61.46
2023-03-13T02:11:11.520Z,61.22
2023-03-13T02:12:16.356Z,62.14
2023-03-13T02:13:17.401Z,61.73
2023-03-13T02:14:17.267Z,61.47
2023-03-13T02:15:18.736Z,61.91
2023-03-13T02:16:16.760Z,62.80
2023-03-13T02:17:14.415Z,63.02
2023-03-13T02:18:11.635Z,62.57
2023-03-13T02:19:25.083Z,63.71
2023-03-13T02:20:23.031Z,64.18
2023-03-13T02:21:43.081Z,63.89
2023-03-13T02:23:09.673Z,63.77
2023-03-13T02:24:32.647Z,63.80
2023-03-13T02:25:49.861Z,64.85
2023-03-13T02:26:46.689Z,64.17
2023-03-13T02:27:45.904Z,64.87
2023-03-13T02:28:43.235Z,65.13
2023-03-13T02:29:41.598Z,64.98
2023-03-13T02:30:43.052Z,65.88
2023-03-13T02:31:40.121Z,65.39
2023-03-13T02:32:37.652Z,64.71
2023-03-13T02:33:42.252Z,63.81
2023-03-13T02:34:43.370Z,62.99
2023-03-13T02:35:42.148Z,62.84
2023-03-13T02:36:40.642Z,62.61
2023-03-13T02:37:38.346Z,62.76
2023-03-13T02:39:00.448Z,62.58
2023-03-13T02:40:04.635Z,62.38
2023-03-13T02:41:05.040Z,61.76
2023-03-13T02:42:03.907Z,61.82
2023-03-13T02:43:05.162Z,61.93
2023-03-13T02:44:01.914Z,61.23
2023-03-13T02:44:58.810Z,61.50
2023-03-13T02:46:17.456Z,63.06
2023-03-13T02:47:25.584Z,62.86
2023-03-13T02:48:32.700Z,63.43
2023-03-13T02:49:30.538Z,63.61
2023-03-13T02:50:27.919Z,64.21
2023-03-13T02:51:36.509Z,64.60
2023-03-13T02:52:46.757Z,64.03
2023-03-13T02:53:48.863Z,65.39
2023-03-13T02:54:50.115Z,65.49
2023-03-13T02:55:46.940Z,65.57
2023-03-13T02:56:49.161Z,67.02
2023-03-13T02:57:46.059Z,68.11
2023-03-13T02:58:51.085Z,68.64
2023-03-13T02:59:47.888Z,68.98
2023-03-13T03:00:48.445Z,70.42
2023-03-13T03:01:45.917Z,71.13
2023-03-13T03:02:43.640Z,71.38
2023-03-13T03:03:40.585Z,71.35
2023-03-13T03:04:37.362Z,72.24
2023-03-13T03:05:34.190Z,73.41
2023-03-13T03:06:30.880Z,73.76
2023-03-13T03:07:27.713Z,73.13
2023-03-13T03:08:24.574Z,73.96
2023-03-13T03:09:23.881Z,74.21
2023-03-13T03:10:20.665Z,74.51
2023-03-13T03:11:17.481Z,74.91
2023-03-13T03:12:14.365Z,74.26
2023-03-13T03:13:11.159Z,73.97
2023-03-13T03:14:08.911Z,73.63
2023-03-13T03:15:06.410Z,73.56
2023-03-13T03:16:12.103Z,74.26
2023-03-13T03:17:08.969Z,73.54
2023-03-13T03:18:05.750Z,74.27
2023-03-13T03:19:02.916Z,74.65
2023-03-13T03:19:59.729Z,73.47
2023-03-13T03:20:56.519Z,72.55
2023-03-13T03:21:53.312Z,72.52
2023-03-13T03:22:50.051Z,71.82
2023-03-13T03:23:47.138Z,70.33
2023-03-13T03:24:43.981Z,69.98
2023-03-13T03:25:40.975Z,70.18
2023-03-13T03:26:38.091Z,69.42
2023-03-13T03:27:36.437Z,69.73
2023-03-13T03:28:33.424Z,70.05
2023-03-13T03:29:30.199Z,70.07
2023-03-13T03:30:26.995Z,70.76
2023-03-13T03:31:24.092Z,71.27
2023-03-13T03:32:39.695Z,71.51
2023-03-13T03:33:38.046Z,73.63
2023-03-13T03:34:34.841Z,74.88
2023-03-13T03:35:31.894Z,75.51
2023-03-13T03:36:29.374Z,76.68
2023-03-13T03:37:44.563Z,77.63
2023-03-13T03:38:42.365Z,79.08
2023-03-13T03:39:39.198Z,80.14
2023-03-13T03:40:35.936Z,79.39
2023-03-13T03:41:32.725Z,78.33
2023-03-13T03:42:29.498Z,77.36
2023-03-13T03:43:26.522Z,77.92
2023-03-13T03:44:23.355Z,77.33
2023-03-13T03:45:20.205Z,77.04
2023-03-13T03:46:17.352Z,76.55
2023-03-13T03:47:14.418Z,76.72
2023-03-13T03:48:11.277Z,76.86
2023-03-13T03:49:08.025Z,77.18
2023-03-13T03:50:05.192Z,76.67
2023-03-13T03:51:02.345Z,77.89
2023-03-13T03:51:59.041Z,78.56
2023-03-13T03:52:55.840Z,78.67
2023-03-13T03:53:52.691Z,79.25
2023-03-13T03:54:49.435Z,80.98
2023-03-13T03:55:46.278Z,81.12
2023-03-13T03:56:43.095Z,80.88
2023-03-13T03:57:39.878Z,81.21
2023-03-13T03:58:36.755Z,80.66
2023-03-13T03:59:33.589Z,78.77
2023-03-13T04:00:30.616Z,80.05
2023-03-13T04:01:27.404Z,80.21
2023-03-13T04:02:24.214Z,81.03
2023-03-13T04:03:21.104Z,80.98
2023-03-13T04:04:17.919Z,82.32
2023-03-13T04:05:14.738Z,82.12
2023-03-13T04:06:11.607Z,80.89
2023-03-13T04:07:08.459Z,80.78
2023-03-13T04:08:05.948Z,81.15
2023-03-13T04:09:02.721Z,80.96
2023-03-13T04:09:59.620Z,81.79
2023-03-13T04:10:56.374Z,82.00
2023-03-13T04:11:53.238Z,80.87
2023-03-13T04:12:49.958Z,81.72
2023-03-13T04:13:46.790Z,80.79
2023-03-13T04:14:43.677Z,80.40
2023-03-13T04:15:41.687Z,80.16
2023-03-13T04:16:38.462Z,79.17
2023-03-13T04:17:35.297Z,79.30
2023-03-13T04:18:32.092Z,78.80
2023-03-13T04:19:28.912Z,79.90
2023-03-13T04:20:28.906Z,78.67
2023-03-13T04:21:25.915Z,77.80
2023-03-13T04:22:22.788Z,78.32
2023-03-13T04:23:19.557Z,77.23
2023-03-13T04:24:16.355Z,77.40
2023-03-13T04:25:13.196Z,77.67
2023-03-13T04:26:09.924Z,78.13
2023-03-13T04:27:06.755Z,77.99
2023-03-13T04:28:03.619Z,77.45
2023-03-13T04:29:00.419Z,77.56
2023-03-13T04:29:57.146Z,79.45
2023-03-13T04:30:57.553Z,78.79
2023-03-13T04:31:54.362Z,80.17
2023-03-13T04:32:51.304Z,79.38
2023-03-13T04:33:48.178Z,81.82
2023-03-13T04:34:47.715Z,80.91
2023-03-13T04:35:44.788Z,80.96
2023-03-13T04:36:41.688Z,80.65
2023-03-13T04:37:38.572Z,81.69
2023-03-13T04:38:35.405Z,83.79
2023-03-13T04:39:33.205Z,84.09
2023-03-13T04:40:30.078Z,85.20
2023-03-13T04:41:26.830Z,83.71
2023-03-13T04:42:23.745Z,82.40
2023-03-13T04:43:20.848Z,81.35
2023-03-13T04:44:17.633Z,80.58
2023-03-13T04:45:17.159Z,80.82
2023-03-13T04:46:14.134Z,80.69
2023-03-13T04:47:10.999Z,81.41
2023-03-13T04:48:07.782Z,82.88
2023-03-13T04:49:06.133Z,82.92
2023-03-13T04:50:04.873Z,83.49
2023-03-13T04:51:01.710Z,82.40
2023-03-13T04:51:58.580Z,82.27
2023-03-13T04:52:55.308Z,80.60
2023-03-13T04:53:52.147Z,81.72
2023-03-13T04:54:51.169Z,83.30
2023-03-13T04:55:50.177Z,83.30
2023-03-13T04:56:46.959Z,83.72
2023-03-13T04:57:43.805Z,84.66
2023-03-13T04:58:40.593Z,85.10
2023-03-13T04:59:37.450Z,84.72
2023-03-13T05:00:34.391Z,84.92
2023-03-13T05:01:31.763Z,86.30
2023-03-13T05:02:29.140Z,86.01
2023-03-13T05:03:25.918Z,86.49
2023-03-13T05:04:22.747Z,82.83
2023-03-13T05:05:19.597Z,82.22
2023-03-13T05:06:16.521Z,82.84
2023-03-13T05:07:13.296Z,81.96
2023-03-13T05:08:11.098Z,84.18
2023-03-13T05:09:08.065Z,84.23
2023-03-13T05:10:05.247Z,84.49
2023-03-13T05:11:02.661Z,85.06
2023-03-13T05:11:59.602Z,85.00
2023-03-13T05:12:56.469Z,85.32
2023-03-13T05:13:53.378Z,85.46
2023-03-13T05:14:50.412Z,85.57
2023-03-13T05:15:47.246Z,86.25
2023-03-13T05:16:44.111Z,88.75
2023-03-13T05:17:40.921Z,87.70
2023-03-13T05:18:39.336Z,87.70
2023-03-13T05:19:36.297Z,86.15
2023-03-13T05:20:33.138Z,84.05
2023-03-13T05:21:29.998Z,84.62
2023-03-13T05:22:26.907Z,84.51
2023-03-13T05:23:23.826Z,83.79
2023-03-13T05:24:20.614Z,82.88
2023-03-13T05:25:17.613Z,82.05
2023-03-13T05:26:14.371Z,81.79
2023-03-13T05:27:11.162Z,81.55
2023-03-13T05:28:08.134Z,82.48
2023-03-13T05:29:04.914Z,80.98
2023-03-13T05:30:01.702Z,81.22
2023-03-13T05:30:58.507Z,80.54
2023-03-13T05:31:55.392Z,79.89
2023-03-13T05:32:52.254Z,78.71
2023-03-13T05:33:49.140Z,78.61
2023-03-13T05:34:45.914Z,78.88
2023-03-13T05:35:43.190Z,79.31
2023-03-13T05:36:40.101Z,79.05
2023-03-13T05:37:38.437Z,77.19
2023-03-13T05:38:37.200Z,76.01
2023-03-13T05:39:33.998Z,75.12
2023-03-13T05:40:30.876Z,74.52
2023-03-13T05:41:27.696Z,74.38
2023-03-13T05:42:25.179Z,74.41
2023-03-13T05:43:21.905Z,73.54
2023-03-13T05:44:18.693Z,73.20
2023-03-13T05:45:15.463Z,72.47
2023-03-13T05:46:12.201Z,72.71
2023-03-13T05:47:08.984Z,72.01
2023-03-13T05:48:06.124Z,72.49
2023-03-13T05:49:02.901Z,72.43
2023-03-13T05:49:59.628Z,72.07
2023-03-13T05:50:56.603Z,71.27
2023-03-13T05:51:53.333Z,70.79
2023-03-13T05:52:50.170Z,71.69
2023-03-13T05:53:46.916Z,70.58
2023-03-13T05:54:43.722Z,70.20
2023-03-13T05:55:40.470Z,70.67
2023-03-13T05:56:37.334Z,70.01
2023-03-13T05:57:34.143Z,70.10
2023-03-13T05:58:30.955Z,71.39
2023-03-13T05:59:27.803Z,71.45
2023-03-13T06:00:24.619Z,72.78
2023-03-13T06:01:21.442Z,73.13
2023-03-13T06:02:18.305Z,71.63
2023-03-13T06:03:15.134Z,70.39
2023-03-13T06:04:12.074Z,69.52
2023-03-13T06:05:09.783Z,69.09
2023-03-13T06:06:06.742Z,67.95
2023-03-13T06:07:03.665Z,66.75
2023-03-13T06:08:00.414Z,66.43
2023-03-13T06:08:57.228Z,66.65
2023-03-13T06:09:54.046Z,65.38
2023-03-13T06:10:50.796Z,66.07
2023-03-13T06:11:47.671Z,65.59
2023-03-13T06:12:44.661Z,65.07
2023-03-13T06:13:41.462Z,63.59
2023-03-13T06:14:38.217Z,64.61
2023-03-13T06:15:34.999Z,64.87
2023-03-13T06:16:31.962Z,66.20
2023-03-13T06:17:29.503Z,65.69
2023-03-13T06:18:27.229Z,66.01
2023-03-13T06:19:24.474Z,65.03
2023-03-13T06:20:22.803Z,64.62
2023-03-13T06:21:19.580Z,63.89
2023-03-13T06:22:17.122Z,62.63
2023-03-13T06:23:13.943Z,62.08
2023-03-13T06:24:10.687Z,62.84
2023-03-13T06:25:08.261Z,61.76
2023-03-13T06:26:05.290Z,61.85
2023-03-13T06:27:02.186Z,61.67
2023-03-13T06:27:58.959Z,61.62
2023-03-13T06:28:56.846Z,60.35
2023-03-13T06:29:53.686Z,61.05
2023-03-13T06:30:50.490Z,60.93
2023-03-13T06:31:47.389Z,59.93
2023-03-13T06:32:44.363Z,59.02
2023-03-13T06:33:41.211Z,59.85
2023-03-13T06:34:38.043Z,59.10
2023-03-13T06:35:46.168Z,59.84
2023-03-13T06:36:50.232Z,60.09
2023-03-13T06:37:47.174Z,60.53
2023-03-13T06:38:43.992Z,60.70
2023-03-13T06:39:40.856Z,61.57
2023-03-13T06:40:37.931Z,62.10
2023-03-13T06:41:34.702Z,62.87
2023-03-13T06:42:31.417Z,63.86
2023-03-13T06:43:28.484Z,63.27
2023-03-13T06:44:25.558Z,63.76
2023-03-13T06:45:22.308Z,63.12
2023-03-13T06:46:23.023Z,62.35
2023-03-13T06:47:19.844Z,62.46
2023-03-13T06:48:17.390Z,62.04
2023-03-13T06:49:14.162Z,62.11
2023-03-13T06:50:11.418Z,62.10
2023-03-13T06:51:14.966Z,61.63
2023-03-13T06:52:11.851Z,61.33
2023-03-13T06:53:18.828Z,60.96
2023-03-13T06:54:15.664Z,61.23
2023-03-13T06:55:13.102Z,61.98
2023-03-13T06:56:10.537Z,61.29
2023-03-13T06:57:07.291Z,61.73
2023-03-13T06:58:04.091Z,61.56
2023-03-13T06:59:00.994Z,60.59
2023-03-13T06:59:57.714Z,60.47
2023-03-13T07:00:54.626Z,60.34
2023-03-13T07:01:51.422Z,59.97
2023-03-13T07:02:48.383Z,59.58
2023-03-13T07:03:46.811Z,58.94
2023-03-13T07:04:45.296Z,58.79
2023-03-13T07:05:42.154Z,59.26
2023-03-13T07:06:39.034Z,58.53
2023-03-13T07:07:35.820Z,59.02
2023-03-13T07:08:33.976Z,59.65
2023-03-13T07:09:30.990Z,59.54
2023-03-13T07:10:27.834Z,60.26
2023-03-13T07:11:26.027Z,60.12
2023-03-13T07:12:22.853Z,60.44
2023-03-13T07:13:22.473Z,60.56
2023-03-13T07:14:19.393Z,61.00
2023-03-13T07:15:16.292Z,60.95
2023-03-13T07:16:14.265Z,61.00
2023-03-13T07:17:11.182Z,60.63
2023-03-13T07:18:07.984Z,60.56
2023-03-13T07:19:04.754Z,60.99
2023-03-13T07:20:01.790Z,61.28
2023-03-13T07:21:00.969Z,60.35
2023-03-13T07:21:57.813Z,59.94
2023-03-13T07:22:54.550Z,60.68
2023-03-13T07:23:51.334Z,60.90
2023-03-13T07:24:49.307Z,61.27
2023-03-13T07:25:56.485Z,61.28
2023-03-13T07:27:05.415Z,60.53
2023-03-13T07:28:04.270Z,61.14
2023-03-13T07:29:01.250Z,62.02
2023-03-13T07:29:58.198Z,62.20
2023-03-13T07:30:55.216Z,62.40
2023-03-13T07:31:52.109Z,62.02
2023-03-13T07:32:49.219Z,61.80
2023-03-13T07:33:46.362Z,62.12
2023-03-13T07:34:44.710Z,61.10
2023-03-13T07:35:41.598Z,60.55
2023-03-13T07:36:38.601Z,61.50
2023-03-13T07:37:35.485Z,61.09
2023-03-13T07:38:32.442Z,61.57
2023-03-13T07:39:29.205Z,61.03
2023-03-13T07:40:25.986Z,61.11
2023-03-13T07:41:23.248Z,61.63
2023-03-13T07:42:19.962Z,61.28
2023-03-13T07:43:16.813Z,61.71
2023-03-13T07:44:13.574Z,62.46
2023-03-13T07:45:10.918Z,63.43
2023-03-13T07:46:12.205Z,63.36
2023-03-13T07:47:09.215Z,63.22
2023-03-13T07:48:06.545Z,62.96
2023-03-13T07:49:03.422Z,62.66
2023-03-13T07:50:00.292Z,62.56
2023-03-13T07:50:58.004Z,61.65
2023-03-13T07:51:55.256Z,61.35
2023-03-13T07:52:52.048Z,61.14
2023-03-13T07:53:49.477Z,61.95
2023-03-13T07:54:46.283Z,62.04
2023-03-13T07:55:43.043Z,62.12
2023-03-13T07:56:40.524Z,61.61
2023-03-13T07:57:37.274Z,62.00
2023-03-13T07:58:36.612Z,60.93
2023-03-13T07:59:33.585Z,60.36
2023-03-13T08:00:30.444Z,61.35
2023-03-13T08:01:30.564Z,59.90
2023-03-13T08:02:27.883Z,59.66
2023-03-13T08:03:25.596Z,59.21
2023-03-13T08:04:22.537Z,58.99
2023-03-13T08:05:20.274Z,58.68
2023-03-13T08:06:26.348Z,59.32
2023-03-13T08:07:23.203Z,59.68
2023-03-13T08:08:20.528Z,60.22
2023-03-13T08:09:17.325Z,59.69
2023-03-13T08:10:14.647Z,59.32
2023-03-13T08:11:20.350Z,58.61
2023-03-13T08:12:17.155Z,58.21
2023-03-13T08:13:14.142Z,57.93
2023-03-13T08:14:11.109Z,57.71
2023-03-13T08:15:08.669Z,57.41
2023-03-13T08:16:07.883Z,56.75
2023-03-13T08:17:04.891Z,57.89
2023-03-13T08:18:01.752Z,57.38
2023-03-13T08:19:00.198Z,57.20
2023-03-13T08:19:57.037Z,57.89
2023-03-13T08:20:53.808Z,56.99
2023-03-13T08:21:50.600Z,57.62
2023-03-13T08:22:47.854Z,56.90
2023-03-13T08:23:44.709Z,56.94
2023-03-13T08:24:41.490Z,57.21
2023-03-13T08:25:38.279Z,57.56
2023-03-13T08:26:37.720Z,57.76
2023-03-13T08:27:34.448Z,58.46
2023-03-13T08:28:31.204Z,59.33
2023-03-13T08:29:27.988Z,57.96
2023-03-13T08:30:24.749Z,57.86
2023-03-13T08:31:43.456Z,58.25
2023-03-13T08:32:40.717Z,59.40
2023-03-13T08:33:38.423Z,59.36
2023-03-13T08:34:36.922Z,59.17
2023-03-13T08:35:33.829Z,58.14
2023-03-13T08:36:36.322Z,56.80
2023-03-13T08:37:33.089Z,58.28
2023-03-13T08:38:29.883Z,57.75
2023-03-13T08:39:27.098Z,57.96
2023-03-13T08:40:23.944Z,56.73
2023-03-13T08:41:23.881Z,56.60
2023-03-13T08:42:20.630Z,56.82
2023-03-13T08:43:17.397Z,58.38
2023-03-13T08:44:17.271Z,57.70
2023-03-13T08:45:14.100Z,57.55
2023-03-13T08:46:11.342Z,57.83
2023-03-13T08:47:09.107Z,57.91
2023-03-13T08:48:06.106Z,57.42
2023-03-13T08:49:04.450Z,57.05
2023-03-13T08:50:01.266Z,58.09
2023-03-13T08:51:12.447Z,57.16
2023-03-13T08:52:09.161Z,56.86
2023-03-13T08:53:05.921Z,55.50
2023-03-13T08:54:04.107Z,55.56
2023-03-13T08:55:00.876Z,54.41
2023-03-13T08:55:57.770Z,53.87
2023-03-13T08:56:54.604Z,53.91
2023-03-13T08:57:51.433Z,53.06
2023-03-13T08:58:56.089Z,52.87
2023-03-13T08:59:52.905Z,53.50
2023-03-13T09:00:49.853Z,52.82
2023-03-13T09:01:46.738Z,52.14
2023-03-13T09:02:43.654Z,52.75
2023-03-13T09:03:42.343Z,52.95
2023-03-13T09:04:39.210Z,53.31
2023-03-13T09:05:54.666Z,53.50
2023-03-13T09:06:52.524Z,53.01
2023-03-13T09:07:50.391Z,54.29
2023-03-13T09:08:47.680Z,54.65
2023-03-13T09:09:44.656Z,54.49
2023-03-13T09:10:41.856Z,54.22
2023-03-13T09:11:40.059Z,53.98
2023-03-13T09:12:36.817Z,53.64
2023-03-13T09:13:36.334Z,54.42
2023-03-13T09:14:35.186Z,54.48
2023-03-13T09:15:33.429Z,54.56
2023-03-13T09:16:32.592Z,54.57
2023-03-13T09:17:29.326Z,54.45
2023-03-13T09:18:27.268Z,54.77
2023-03-13T09:19:24.031Z,54.78
2023-03-13T09:20:20.901Z,54.09
2023-03-13T09:21:20.857Z,53.17
2023-03-13T09:22:17.583Z,53.35
2023-03-13T09:23:14.307Z,53.92
2023-03-13T09:24:11.073Z,54.18
2023-03-13T09:25:08.109Z,53.43
2023-03-13T09:26:05.102Z,54.12
2023-03-13T09:27:01.957Z,53.92
2023-03-13T09:27:58.702Z,54.10
2023-03-13T09:28:56.979Z,54.62
2023-03-13T09:29:54.561Z,54.25
2023-03-13T09:30:51.765Z,54.82
2023-03-13T09:31:50.870Z,53.91
2023-03-13T09:32:47.745Z,54.09
2023-03-13T09:33:47.503Z,53.24
2023-03-13T09:34:44.308Z,52.88
2023-03-13T09:35:41.366Z,53.95
2023-03-13T09:36:38.164Z,53.78
2023-03-13T09:37:34.973Z,53.27
2023-03-13T09:38:32.263Z,53.32
2023-03-13T09:39:29.122Z,52.81
2023-03-13T09:40:28.673Z,52.16
2023-03-13T09:42:07.809Z,52.45
2023-03-13T09:43:05.059Z,52.41
2023-03-13T09:44:11.599Z,52.83
2023-03-13T09:45:18.001Z,52.41
2023-03-13T09:46:37.769Z,52.41
2023-03-13T09:47:48.445Z,51.74
2023-03-13T09:48:55.138Z,51.16
2023-03-13T09:50:10.009Z,51.74
2023-03-13T09:51:26.320Z,50.99
2023-03-13T09:52:26.505Z,51.66
2023-03-13T09:53:44.091Z,51.55
2023-03-13T09:54:54.861Z,51.48
2023-03-13T09:55:52.765Z,51.50
2023-03-13T09:57:21.509Z,52.51
2023-03-13T09:58:23.051Z,52.00
2023-03-13T09:59:29.463Z,51.76
2023-03-13T10:00:34.478Z,51.46
2023-03-13T10:01:35.206Z,51.33
2023-03-13T10:02:35.238Z,51.46
2023-03-13T10:03:44.835Z,51.20
2023-03-13T10:04:51.609Z,51.49
2023-03-13T10:06:27.500Z,51.36
2023-03-13T10:07:24.321Z,51.33
2023-03-13T10:08:26.426Z,50.40
2023-03-13T10:09:30.101Z,50.81
2023-03-13T10:10:43.703Z,52.34
2023-03-13T10:11:58.980Z,51.81
2023-03-13T10:13:09.861Z,51.61
2023-03-13T10:14:20.976Z,51.08
2023-03-13T10:15:39.314Z,50.56
2023-03-13T10:16:50.313Z,50.94
2023-03-13T10:17:47.527Z,50.15
2023-03-13T10:18:52.963Z,49.65
2023-03-13T10:19:59.045Z,49.74
2023-03-13T10:21:16.397Z,50.33
2023-03-13T10:22:25.358Z,50.88
2023-03-13T10:23:45.568Z,50.27
2023-03-13T10:24:54.787Z,50.52
2023-03-13T10:25:51.584Z,50.28
2023-03-13T10:26:48.329Z,50.75
2023-03-13T10:27:50.998Z,50.60
2023-03-13T10:28:48.332Z,49.84
2023-03-13T10:29:45.232Z,50.37
2023-03-13T10:30:48.465Z,50.27
2023-03-13T10:31:57.242Z,49.56
2023-03-13T10:33:14.671Z,49.71
2023-03-13T10:34:14.375Z,50.41
2023-03-13T10:35:21.682Z,50.04
2023-03-13T10:36:19.955Z,50.16
2023-03-13T10:37:22.418Z,49.62
2023-03-13T10:38:22.782Z,48.66
2023-03-13T10:39:26.090Z,47.99
2023-03-13T10:40:26.781Z,47.92
2023-03-13T10:41:50.743Z,47.11
2023-03-13T10:42:47.823Z,47.48
2023-03-13T10:43:58.681Z,47.00
2023-03-13T10:45:04.573Z,46.51
2023-03-13T10:46:03.916Z,47.24
2023-03-13T10:47:03.020Z,47.88
2023-03-13T10:48:20.502Z,48.28
2023-03-13T10:49:23.699Z,47.90
2023-03-13T10:50:23.871Z,47.90
2023-03-13T10:51:31.860Z,48.28
2023-03-13T10:52:40.423Z,47.09
2023-03-13T10:53:37.715Z,47.22
2023-03-13T10:54:39.573Z,47.04
2023-03-13T10:55:44.451Z,46.81
2023-03-13T10:56:41.456Z,46.53
2023-03-13T10:57:38.471Z,46.03
2023-03-13T10:58:42.710Z,46.47
2023-03-13T10:59:44.507Z,45.66
2023-03-13T11:00:42.606Z,45.91
2023-03-13T11:01:44.868Z,45.05
2023-03-13T11:02:45.011Z,45.54
2023-03-13T11:03:44.090Z,45.26
2023-03-13T11:04:40.904Z,45.67
2023-03-13T11:05:45.623Z,45.41
2023-03-13T11:06:42.456Z,45.66
2023-03-13T11:07:40.601Z,46.25
2023-03-13T11:08:37.766Z,46.19
2023-03-13T11:09:34.695Z,46.34
2023-03-13T11:10:32.590Z,46.72
2023-03-13T11:11:31.121Z,46.79
2023-03-13T11:12:29.214Z,46.55
2023-03-13T11:13:37.337Z,46.23
2023-03-13T11:14:36.051Z,47.28
2023-03-13T11:15:57.362Z,46.89
2023-03-13T11:17:29.706Z,46.46
2023-03-13T11:19:02.082Z,46.92
2023-03-13T11:20:26.013Z,45.72
2023-03-13T11:21:38.994Z,45.85
2023-03-13T11:22:38.718Z,45.89
2023-03-13T11:23:45.877Z,45.75
2023-03-13T11:25:13.821Z,45.25
2023-03-13T11:26:35.256Z,46.44
2023-03-13T11:28:09.518Z,46.26
2023-03-13T11:29:24.778Z,45.54
2023-03-13T11:30:36.763Z,45.64
2023-03-13T11:31:42.589Z,45.51
2023-03-13T11:32:49.096Z,45.69
2023-03-13T11:34:03.728Z,46.12
2023-03-13T11:35:10.951Z,44.10
2023-03-13T11:36:35.469Z,44.18
2023-03-13T11:37:35.783Z,44.94
2023-03-13T11:38:53.626Z,44.47
2023-03-13T11:40:08.946Z,44.19
2023-03-13T11:41:06.837Z,44.90
2023-03-13T11:42:21.889Z,45.08
2023-03-13T11:43:41.049Z,45.24
2023-03-13T11:45:02.414Z,45.15
2023-03-13T11:46:20.589Z,44.68
2023-03-13T11:47:20.273Z,45.49
2023-03-13T11:48:41.983Z,45.05
2023-03-13T11:50:15.591Z,45.77
2023-03-13T11:51:49.421Z,45.57
2023-03-13T11:52:58.369Z,45.44
2023-03-13T11:54:26.047Z,44.84
2023-03-13T11:55:44.353Z,44.89
2023-03-13T11:56:53.347Z,45.57
2023-03-13T11:58:21.530Z,45.53
2023-03-13T11:59:43.050Z,44.92
2023-03-13T12:00:53.191Z,44.89
2023-03-13T12:02:00.272Z,44.50
2023-03-13T12:03:05.979Z,44.12
2023-03-13T12:04:23.023Z,44.00
2023-03-13T12:05:22.049Z,43.33
2023-03-13T12:06:58.669Z,44.21
2023-03-13T12:08:01.517Z,43.30
2023-03-13T12:09:19.814Z,43.70
2023-03-13T12:10:35.582Z,43.16
2023-03-13T12:12:04.724Z,43.19
2023-03-13T12:13:16.066Z,43.51
2023-03-13T12:14:31.495Z,44.28
2023-03-13T12:15:43.393Z,43.91
2023-03-13T12:16:52.173Z,44.32
2023-03-13T12:18:02.917Z,43.15
2023-03-13T12:19:02.403Z,43.32
2023-03-13T12:20:07.974Z,43.50
2023-03-13T12:21:23.701Z,43.95
2023-03-13T12:22:28.897Z,44.10
2023-03-13T12:23:45.735Z,42.91
2023-03-13T12:24:54.092Z,43.53
2023-03-13T12:26:04.834Z,43.78
2023-03-13T12:27:32.855Z,42.81
2023-03-13T12:28:35.768Z,43.59
2023-03-13T12:29:40.646Z,42.85
2023-03-13T12:31:13.021Z,42.55
2023-03-13T12:32:22.332Z,43.09
2023-03-13T12:33:36.133Z,42.47
2023-03-13T12:35:08.409Z,42.65
2023-03-13T12:36:18.960Z,42.07
2023-03-13T12:37:44.625Z,42.22
2023-03-13T12:38:50.751Z,42.97
2023-03-13T12:40:33.752Z,42.87
2023-03-13T12:41:42.114Z,43.98
2023-03-13T12:42:49.657Z,43.58
2023-03-13T12:44:08.415Z,43.46
2023-03-13T12:45:09.908Z,43.60
2023-03-13T12:46:36.017Z,43.70
2023-03-13T12:47:43.911Z,42.89
2023-03-13T12:48:56.106Z,43.32
2023-03-13T12:50:20.459Z,43.97
2023-03-13T12:51:52.805Z,44.49
2023-03-13T12:53:07.832Z,43.82
2023-03-13T12:54:22.145Z,42.83
2023-03-13T12:55:38.806Z,42.62
2023-03-13T12:57:28.526Z,42.82
2023-03-13T12:58:53.434Z,43.54
2023-03-13T13:00:05.715Z,42.79
2023-03-13T13:01:06.174Z,42.94
2023-03-13T13:02:17.794Z,43.13
2023-03-13T13:03:17.161Z,43.38
2023-03-13T13:04:28.409Z,42.79
2023-03-13T13:05:25.378Z,43.13
2023-03-13T13:06:22.682Z,42.89
2023-03-13T13:07:28.115Z,42.53
2023-03-13T13:08:28.109Z,43.10